sensor_id;sensor_type;location;lat;lon;timestamp;pressure;altitude;pressure_sealevel;temperature;humidity
6349;BME280;3207;42.648;23.406;2024-03-08T00:02:24;100328.31;;;6.34;77.19
6349;BME280;3207;42.648;23.406;2024-03-08T00:04:51;100324.88;;;6.33;76.88
6349;BME280;3207;42.648;23.406;2024-03-08T00:07:18;100324.97;;;6.32;77.34
6349;BME280;3207;42.648;23.406;2024-03-08T00:09:45;100328.53;;;6.29;76.71
6349;BME280;3207;42.648;23.406;2024-03-08T00:12:13;100291.84;;;6.02;77.36
6349;BME280;3207;42.648;23.406;2024-03-08T00:14:40;100324.34;;;6.09;77.59
6349;BME280;3207;42.648;23.406;2024-03-08T00:17:07;100318.44;;;6.06;78.29
6349;BME280;3207;42.648;23.406;2024-03-08T00:19:36;100314.81;;;6.10;78.48
6349;BME280;3207;42.648;23.406;2024-03-08T00:22:02;100311.56;;;6.05;78.66
6349;BME280;3207;42.648;23.406;2024-03-08T00:24:29;100317.72;;;6.04;78.47
6349;BME280;3207;42.648;23.406;2024-03-08T00:26:56;100324.78;;;6.00;78.74
6349;BME280;3207;42.648;23.406;2024-03-08T00:29:24;100313.72;;;5.97;79.42
6349;BME280;3207;42.648;23.406;2024-03-08T00:31:51;100320.91;;;5.92;79.17
6349;BME280;3207;42.648;23.406;2024-03-08T00:34:17;100301.16;;;5.70;79.07
6349;BME280;3207;42.648;23.406;2024-03-08T00:36:46;100309.94;;;5.85;79.91
6349;BME280;3207;42.648;23.406;2024-03-08T00:39:13;100306.50;;;5.84;80.26
6349;BME280;3207;42.648;23.406;2024-03-08T00:41:40;100300.31;;;5.87;79.89
6349;BME280;3207;42.648;23.406;2024-03-08T00:44:07;100292.63;;;5.85;80.13
6349;BME280;3207;42.648;23.406;2024-03-08T00:46:35;100289.00;;;5.90;80.48
6349;BME280;3207;42.648;23.406;2024-03-08T00:49:02;100281.22;;;5.90;80.59
6349;BME280;3207;42.648;23.406;2024-03-08T00:51:29;100245.00;;;5.69;80.41
6349;BME280;3207;42.648;23.406;2024-03-08T00:53:57;100283.50;;;5.96;80.21
6349;BME280;3207;42.648;23.406;2024-03-08T00:56:24;100285.31;;;5.94;80.23
6349;BME280;3207;42.648;23.406;2024-03-08T00:58:51;100280.91;;;5.96;79.71
6349;BME280;3207;42.648;23.406;2024-03-08T01:01:18;100273.19;;;5.94;79.52
6349;BME280;3207;42.648;23.406;2024-03-08T01:03:45;100275.56;;;5.99;79.95
6349;BME280;3207;42.648;23.406;2024-03-08T01:06:14;100259.47;;;5.92;78.70
6349;BME280;3207;42.648;23.406;2024-03-08T01:08:41;100263.81;;;5.92;79.20
6349;BME280;3207;42.648;23.406;2024-03-08T01:11:09;100283.22;;;6.02;78.36
6349;BME280;3207;42.648;23.406;2024-03-08T01:13:37;100277.94;;;6.03;79.01
6349;BME280;3207;42.648;23.406;2024-03-08T01:16:04;100254.38;;;5.91;78.42
6349;BME280;3207;42.648;23.406;2024-03-08T01:18:31;100286.41;;;6.07;78.40
6349;BME280;3207;42.648;23.406;2024-03-08T01:20:58;100275.88;;;6.10;78.29
6349;BME280;3207;42.648;23.406;2024-03-08T01:23:25;100264.88;;;6.05;78.18
6349;BME280;3207;42.648;23.406;2024-03-08T01:25:52;100272.28;;;6.12;78.14
6349;BME280;3207;42.648;23.406;2024-03-08T01:28:23;100266.00;;;6.16;78.01
6349;BME280;3207;42.648;23.406;2024-03-08T01:30:51;100264.34;;;6.15;77.77
6349;BME280;3207;42.648;23.406;2024-03-08T01:33:24;100277.03;;;6.21;78.16
6349;BME280;3207;42.648;23.406;2024-03-08T01:35:51;100273.50;;;6.22;77.52
6349;BME280;3207;42.648;23.406;2024-03-08T01:38:18;100273.59;;;6.21;77.94
6349;BME280;3207;42.648;23.406;2024-03-08T01:40:46;100281.81;;;6.29;77.48
6349;BME280;3207;42.648;23.406;2024-03-08T01:43:20;100279.22;;;6.29;77.97
6349;BME280;3207;42.648;23.406;2024-03-08T01:45:48;100278.31;;;6.30;77.85
6349;BME280;3207;42.648;23.406;2024-03-08T01:48:16;100233.06;;;6.01;78.04
6349;BME280;3207;42.648;23.406;2024-03-08T01:50:44;100278.16;;;6.33;77.51
6349;BME280;3207;42.648;23.406;2024-03-08T01:53:12;100277.97;;;6.36;77.63
6349;BME280;3207;42.648;23.406;2024-03-08T01:55:41;100280.44;;;6.39;78.01
6349;BME280;3207;42.648;23.406;2024-03-08T01:58:10;100269.91;;;6.42;77.85
6349;BME280;3207;42.648;23.406;2024-03-08T02:00:39;100269.75;;;6.45;76.95
6349;BME280;3207;42.648;23.406;2024-03-08T02:03:08;100266.91;;;6.50;77.41
6349;BME280;3207;42.648;23.406;2024-03-08T02:05:36;100276.22;;;6.54;77.32
6349;BME280;3207;42.648;23.406;2024-03-08T02:08:04;100268.16;;;6.58;77.19
6349;BME280;3207;42.648;23.406;2024-03-08T02:10:32;100274.13;;;6.60;76.13
6349;BME280;3207;42.648;23.406;2024-03-08T02:13:01;100274.75;;;6.66;76.51
6349;BME280;3207;42.648;23.406;2024-03-08T02:15:50;100271.03;;;6.70;76.81
6349;BME280;3207;42.648;23.406;2024-03-08T02:18:18;100270.13;;;6.71;76.49
6349;BME280;3207;42.648;23.406;2024-03-08T02:20:47;100272.50;;;6.75;76.26
6349;BME280;3207;42.648;23.406;2024-03-08T02:23:14;100270.56;;;6.79;76.64
6349;BME280;3207;42.648;23.406;2024-03-08T02:25:41;100265.22;;;6.82;76.19
6349;BME280;3207;42.648;23.406;2024-03-08T02:28:09;100265.97;;;6.84;75.93
6349;BME280;3207;42.648;23.406;2024-03-08T02:30:37;100268.50;;;6.85;75.63
6349;BME280;3207;42.648;23.406;2024-03-08T02:33:04;100268.34;;;6.88;75.34
6349;BME280;3207;42.648;23.406;2024-03-08T02:35:31;100271.66;;;6.90;75.28
6349;BME280;3207;42.648;23.406;2024-03-08T02:37:59;100267.31;;;6.91;75.89
6349;BME280;3207;42.648;23.406;2024-03-08T02:40:26;100266.25;;;6.95;75.86
6349;BME280;3207;42.648;23.406;2024-03-08T02:42:53;100250.31;;;6.85;75.39
6349;BME280;3207;42.648;23.406;2024-03-08T02:45:20;100264.13;;;6.86;75.73
6349;BME280;3207;42.648;23.406;2024-03-08T02:47:47;100262.13;;;6.91;75.09
6349;BME280;3207;42.648;23.406;2024-03-08T02:50:15;100264.91;;;6.88;75.55
6349;BME280;3207;42.648;23.406;2024-03-08T02:52:42;100266.88;;;6.83;75.93
6349;BME280;3207;42.648;23.406;2024-03-08T02:55:10;100263.44;;;6.82;75.97
6349;BME280;3207;42.648;23.406;2024-03-08T02:57:40;100263.53;;;6.81;76.27
6349;BME280;3207;42.648;23.406;2024-03-08T03:00:09;100267.03;;;6.80;76.83
6349;BME280;3207;42.648;23.406;2024-03-08T03:02:36;100265.22;;;6.82;76.46
6349;BME280;3207;42.648;23.406;2024-03-08T03:05:04;100267.50;;;6.88;75.64
6349;BME280;3207;42.648;23.406;2024-03-08T03:07:32;100275.13;;;6.91;76.29
6349;BME280;3207;42.648;23.406;2024-03-08T03:09:59;100265.47;;;6.93;75.87
6349;BME280;3207;42.648;23.406;2024-03-08T03:12:28;100266.16;;;6.96;76.59
6349;BME280;3207;42.648;23.406;2024-03-08T03:14:55;100265.06;;;7.01;76.24
6349;BME280;3207;42.648;23.406;2024-03-08T03:17:23;100263.16;;;7.04;75.88
6349;BME280;3207;42.648;23.406;2024-03-08T03:19:50;100268.94;;;7.09;76.19
6349;BME280;3207;42.648;23.406;2024-03-08T03:22:17;100264.47;;;7.11;75.96
6349;BME280;3207;42.648;23.406;2024-03-08T03:24:44;100266.84;;;7.16;75.19
6349;BME280;3207;42.648;23.406;2024-03-08T03:27:11;100244.78;;;7.07;75.03
6349;BME280;3207;42.648;23.406;2024-03-08T03:29:40;100271.63;;;7.23;75.85
6349;BME280;3207;42.648;23.406;2024-03-08T03:32:09;100266.34;;;7.25;75.25
6349;BME280;3207;42.648;23.406;2024-03-08T03:34:37;100264.66;;;7.24;75.09
6349;BME280;3207;42.648;23.406;2024-03-08T03:37:04;100228.59;;;7.02;74.64
6349;BME280;3207;42.648;23.406;2024-03-08T03:39:32;100240.34;;;7.09;75.22
6349;BME280;3207;42.648;23.406;2024-03-08T03:41:59;100246.13;;;7.14;75.03
6349;BME280;3207;42.648;23.406;2024-03-08T03:44:27;100264.56;;;7.25;74.25
6349;BME280;3207;42.648;23.406;2024-03-08T03:46:55;100267.09;;;7.27;74.44
6349;BME280;3207;42.648;23.406;2024-03-08T03:49:22;100270.00;;;7.21;74.89
6349;BME280;3207;42.648;23.406;2024-03-08T03:51:49;100277.56;;;7.25;73.86
6349;BME280;3207;42.648;23.406;2024-03-08T03:54:16;100266.34;;;7.25;74.10
6349;BME280;3207;42.648;23.406;2024-03-08T03:56:43;100272.38;;;7.25;73.64
6349;BME280;3207;42.648;23.406;2024-03-08T03:59:10;100267.94;;;7.27;74.07
6349;BME280;3207;42.648;23.406;2024-03-08T04:01:41;100263.66;;;7.26;73.57
6349;BME280;3207;42.648;23.406;2024-03-08T04:04:10;100266.41;;;7.23;74.14
6349;BME280;3207;42.648;23.406;2024-03-08T04:06:37;100271.69;;;7.22;73.86
6349;BME280;3207;42.648;23.406;2024-03-08T04:09:04;100269.78;;;7.25;72.94
6349;BME280;3207;42.648;23.406;2024-03-08T04:11:31;100263.91;;;7.22;73.78
6349;BME280;3207;42.648;23.406;2024-03-08T04:13:58;100270.53;;;7.27;73.30
6349;BME280;3207;42.648;23.406;2024-03-08T04:16:25;100268.69;;;7.29;73.92
6349;BME280;3207;42.648;23.406;2024-03-08T04:18:52;100263.16;;;7.35;73.02
6349;BME280;3207;42.648;23.406;2024-03-08T04:21:20;100264.97;;;7.33;73.31
6349;BME280;3207;42.648;23.406;2024-03-08T04:23:47;100261.63;;;7.31;73.17
6349;BME280;3207;42.648;23.406;2024-03-08T04:26:14;100276.00;;;7.39;73.61
6349;BME280;3207;42.648;23.406;2024-03-08T04:28:41;100280.06;;;7.43;72.90
6349;BME280;3207;42.648;23.406;2024-03-08T04:31:08;100274.72;;;7.46;72.97
6349;BME280;3207;42.648;23.406;2024-03-08T04:33:36;100270.28;;;7.48;73.44
6349;BME280;3207;42.648;23.406;2024-03-08T04:36:03;100208.97;;;7.12;72.92
6349;BME280;3207;42.648;23.406;2024-03-08T04:38:32;100269.19;;;7.52;73.28
6349;BME280;3207;42.648;23.406;2024-03-08T04:40:59;100271.69;;;7.53;73.35
6349;BME280;3207;42.648;23.406;2024-03-08T04:43:28;100270.69;;;7.56;73.08
6349;BME280;3207;42.648;23.406;2024-03-08T04:45:55;100275.78;;;7.57;72.76
6349;BME280;3207;42.648;23.406;2024-03-08T04:48:22;100274.88;;;7.58;72.40
6349;BME280;3207;42.648;23.406;2024-03-08T04:50:52;100284.28;;;7.61;72.55
6349;BME280;3207;42.648;23.406;2024-03-08T04:53:21;100282.41;;;7.63;72.99
6349;BME280;3207;42.648;23.406;2024-03-08T04:55:50;100283.16;;;7.65;73.07
6349;BME280;3207;42.648;23.406;2024-03-08T04:58:17;100274.53;;;7.64;73.04
6349;BME280;3207;42.648;23.406;2024-03-08T05:00:43;100281.41;;;7.65;72.76
6349;BME280;3207;42.648;23.406;2024-03-08T05:03:10;100282.16;;;7.67;72.90
6349;BME280;3207;42.648;23.406;2024-03-08T05:05:37;100289.88;;;7.69;73.25
6349;BME280;3207;42.648;23.406;2024-03-08T05:08:05;100285.59;;;7.68;72.60
6349;BME280;3207;42.648;23.406;2024-03-08T05:10:32;100280.31;;;7.69;73.32
6349;BME280;3207;42.648;23.406;2024-03-08T05:13:01;100286.28;;;7.71;72.92
6349;BME280;3207;42.648;23.406;2024-03-08T05:15:27;100289.81;;;7.70;73.65
6349;BME280;3207;42.648;23.406;2024-03-08T05:17:54;100289.59;;;7.73;73.10
6349;BME280;3207;42.648;23.406;2024-03-08T05:20:23;100284.50;;;7.72;73.94
6349;BME280;3207;42.648;23.406;2024-03-08T05:22:51;100283.75;;;7.70;73.53
6349;BME280;3207;42.648;23.406;2024-03-08T05:25:18;100290.44;;;7.74;74.11
6349;BME280;3207;42.648;23.406;2024-03-08T05:27:45;100291.28;;;7.75;74.59
6349;BME280;3207;42.648;23.406;2024-03-08T05:30:14;100292.13;;;7.75;74.82
6349;BME280;3207;42.648;23.406;2024-03-08T05:32:41;100293.81;;;7.76;74.47
6349;BME280;3207;42.648;23.406;2024-03-08T05:35:10;100299.00;;;7.76;75.70
6349;BME280;3207;42.648;23.406;2024-03-08T05:37:37;100304.06;;;7.79;75.79
6349;BME280;3207;42.648;23.406;2024-03-08T05:40:06;100293.63;;;7.79;75.26
6349;BME280;3207;42.648;23.406;2024-03-08T05:42:35;100292.72;;;7.80;75.40
6349;BME280;3207;42.648;23.406;2024-03-08T05:45:03;100301.19;;;7.84;75.53
6349;BME280;3207;42.648;23.406;2024-03-08T05:47:33;100298.47;;;7.85;76.16
6349;BME280;3207;42.648;23.406;2024-03-08T05:49:59;100301.00;;;7.87;75.82
6349;BME280;3207;42.648;23.406;2024-03-08T05:52:27;100308.72;;;7.88;75.83
6349;BME280;3207;42.648;23.406;2024-03-08T05:54:54;100300.91;;;7.88;76.13
6349;BME280;3207;42.648;23.406;2024-03-08T05:57:20;100301.69;;;7.90;76.60
6349;BME280;3207;42.648;23.406;2024-03-08T05:59:48;100291.78;;;7.81;76.73
6349;BME280;3207;42.648;23.406;2024-03-08T06:02:15;100303.34;;;7.91;76.60
6349;BME280;3207;42.648;23.406;2024-03-08T06:04:46;100309.31;;;7.93;76.58
6349;BME280;3207;42.648;23.406;2024-03-08T06:07:13;100311.00;;;7.94;77.16
6349;BME280;3207;42.648;23.406;2024-03-08T06:09:40;100316.09;;;7.96;77.15
6349;BME280;3207;42.648;23.406;2024-03-08T06:12:10;100306.59;;;7.95;77.61
6349;BME280;3207;42.648;23.406;2024-03-08T06:14:37;100295.81;;;7.87;77.36
6349;BME280;3207;42.648;23.406;2024-03-08T06:17:04;100312.56;;;7.97;78.11
6349;BME280;3207;42.648;23.406;2024-03-08T06:19:32;100317.69;;;7.98;78.17
6349;BME280;3207;42.648;23.406;2024-03-08T06:22:02;100290.13;;;7.80;78.28
6349;BME280;3207;42.648;23.406;2024-03-08T06:24:31;100312.41;;;8.00;78.82
6349;BME280;3207;42.648;23.406;2024-03-08T06:26:58;100314.16;;;7.99;78.58
6349;BME280;3207;42.648;23.406;2024-03-08T06:29:25;100306.53;;;7.96;78.76
6349;BME280;3207;42.648;23.406;2024-03-08T06:31:52;100306.34;;;7.99;78.60
6349;BME280;3207;42.648;23.406;2024-03-08T06:34:19;100308.13;;;7.99;78.28
6349;BME280;3207;42.648;23.406;2024-03-08T06:36:45;100297.31;;;7.91;78.50
6349;BME280;3207;42.648;23.406;2024-03-08T06:39:14;100320.97;;;8.02;78.41
6349;BME280;3207;42.648;23.406;2024-03-08T06:41:41;100315.69;;;8.03;78.88
6349;BME280;3207;42.648;23.406;2024-03-08T06:44:10;100313.00;;;8.05;78.69
6349;BME280;3207;42.648;23.406;2024-03-08T06:46:37;100316.41;;;8.05;79.20
6349;BME280;3207;42.648;23.406;2024-03-08T06:49:04;100323.28;;;8.06;79.11
6349;BME280;3207;42.648;23.406;2024-03-08T06:51:32;100325.91;;;8.06;79.76
6349;BME280;3207;42.648;23.406;2024-03-08T06:53:59;100323.28;;;8.06;79.62
6349;BME280;3207;42.648;23.406;2024-03-08T06:56:27;100312.66;;;7.95;79.56
6349;BME280;3207;42.648;23.406;2024-03-08T06:58:55;100337.22;;;8.05;79.61
6349;BME280;3207;42.648;23.406;2024-03-08T07:01:22;100331.03;;;8.08;80.31
6349;BME280;3207;42.648;23.406;2024-03-08T07:03:49;100337.81;;;8.11;80.00
6349;BME280;3207;42.648;23.406;2024-03-08T07:06:17;100331.78;;;8.10;80.41
6349;BME280;3207;42.648;23.406;2024-03-08T07:08:45;100330.84;;;8.11;80.57
6349;BME280;3207;42.648;23.406;2024-03-08T07:11:14;100336.72;;;8.15;81.07
6349;BME280;3207;42.648;23.406;2024-03-08T07:13:45;100328.72;;;8.18;81.15
6349;BME280;3207;42.648;23.406;2024-03-08T07:16:12;100332.84;;;8.22;81.40
6349;BME280;3207;42.648;23.406;2024-03-08T07:18:39;100334.53;;;8.23;81.08
6349;BME280;3207;42.648;23.406;2024-03-08T07:21:08;100327.63;;;8.22;80.49
6349;BME280;3207;42.648;23.406;2024-03-08T07:23:35;100336.84;;;8.27;80.88
6349;BME280;3207;42.648;23.406;2024-03-08T07:26:30;100331.53;;;8.29;80.88
6349;BME280;3207;42.648;23.406;2024-03-08T07:28:58;100331.31;;;8.33;80.91
6349;BME280;3207;42.648;23.406;2024-03-08T07:31:26;100337.00;;;8.40;80.58
6349;BME280;3207;42.648;23.406;2024-03-08T07:34:00;100291.25;;;8.20;80.82
6349;BME280;3207;42.648;23.406;2024-03-08T07:36:28;100338.34;;;8.47;80.65
6349;BME280;3207;42.648;23.406;2024-03-08T07:38:55;100312.25;;;8.33;80.57
6349;BME280;3207;42.648;23.406;2024-03-08T07:41:23;100338.22;;;8.49;80.84
6349;BME280;3207;42.648;23.406;2024-03-08T07:43:49;100334.16;;;8.44;80.82
6349;BME280;3207;42.648;23.406;2024-03-08T07:46:19;100329.47;;;8.35;80.96
6349;BME280;3207;42.648;23.406;2024-03-08T07:48:46;100340.00;;;8.48;80.88
6349;BME280;3207;42.648;23.406;2024-03-08T07:51:16;100345.03;;;8.51;80.58
6349;BME280;3207;42.648;23.406;2024-03-08T07:53:43;100348.38;;;8.53;80.93
6349;BME280;3207;42.648;23.406;2024-03-08T07:56:10;100310.31;;;8.36;80.47
6349;BME280;3207;42.648;23.406;2024-03-08T07:58:39;100344.19;;;8.51;80.68
6349;BME280;3207;42.648;23.406;2024-03-08T08:01:07;100353.44;;;8.56;80.50
6349;BME280;3207;42.648;23.406;2024-03-08T08:03:35;100360.97;;;8.61;79.86
6349;BME280;3207;42.648;23.406;2024-03-08T08:06:04;100352.97;;;8.64;79.62
6349;BME280;3207;42.648;23.406;2024-03-08T08:08:30;100354.56;;;8.66;79.64
6349;BME280;3207;42.648;23.406;2024-03-08T08:10:57;100300.81;;;8.35;79.65
6349;BME280;3207;42.648;23.406;2024-03-08T08:13:26;100356.41;;;8.64;79.19
6349;BME280;3207;42.648;23.406;2024-03-08T08:15:57;100351.53;;;8.58;79.38
6349;BME280;3207;42.648;23.406;2024-03-08T08:18:24;100356.59;;;8.61;79.44
6349;BME280;3207;42.648;23.406;2024-03-08T08:20:52;100359.19;;;8.47;80.11
6349;BME280;3207;42.648;23.406;2024-03-08T08:23:19;100362.34;;;8.52;80.24
6349;BME280;3207;42.648;23.406;2024-03-08T08:25:46;100364.09;;;8.52;78.36
6349;BME280;3207;42.648;23.406;2024-03-08T08:28:15;100362.03;;;8.42;77.91
6349;BME280;3207;42.648;23.406;2024-03-08T08:30:43;100364.72;;;8.41;77.82
6349;BME280;3207;42.648;23.406;2024-03-08T08:33:10;100356.00;;;8.42;77.21
6349;BME280;3207;42.648;23.406;2024-03-08T08:35:37;100347.50;;;8.38;76.60
6349;BME280;3207;42.648;23.406;2024-03-08T08:38:06;100361.38;;;8.39;77.09
6349;BME280;3207;42.648;23.406;2024-03-08T08:40:34;100358.84;;;8.37;77.02
6349;BME280;3207;42.648;23.406;2024-03-08T08:43:01;100356.44;;;8.34;77.60
6349;BME280;3207;42.648;23.406;2024-03-08T08:45:29;100358.34;;;8.31;77.33
6349;BME280;3207;42.648;23.406;2024-03-08T08:47:57;100354.38;;;8.09;77.98
6349;BME280;3207;42.648;23.406;2024-03-08T08:50:25;100363.47;;;8.02;78.85
6349;BME280;3207;42.648;23.406;2024-03-08T08:52:53;100354.06;;;8.00;79.35
6349;BME280;3207;42.648;23.406;2024-03-08T08:55:22;100359.75;;;8.06;79.46
6349;BME280;3207;42.648;23.406;2024-03-08T08:57:51;100354.72;;;8.03;78.62
6349;BME280;3207;42.648;23.406;2024-03-08T09:00:18;100371.06;;;8.05;78.51
6349;BME280;3207;42.648;23.406;2024-03-08T09:02:46;100365.13;;;8.03;78.62
6349;BME280;3207;42.648;23.406;2024-03-08T09:05:13;100339.75;;;8.07;79.07
6349;BME280;3207;42.648;23.406;2024-03-08T09:07:42;100352.16;;;8.18;79.84
6349;BME280;3207;42.648;23.406;2024-03-08T09:10:11;100349.78;;;8.29;79.65
6349;BME280;3207;42.648;23.406;2024-03-08T09:12:41;100339.06;;;8.35;78.84
6349;BME280;3207;42.648;23.406;2024-03-08T09:15:08;100344.19;;;8.51;78.39
6349;BME280;3207;42.648;23.406;2024-03-08T09:17:36;100326.59;;;8.40;77.58
6349;BME280;3207;42.648;23.406;2024-03-08T09:20:06;100349.94;;;8.41;77.82
6349;BME280;3207;42.648;23.406;2024-03-08T09:22:34;100349.28;;;8.38;78.21
6349;BME280;3207;42.648;23.406;2024-03-08T09:25:01;100350.69;;;8.43;78.69
6349;BME280;3207;42.648;23.406;2024-03-08T09:27:30;100351.25;;;8.49;78.68
6349;BME280;3207;42.648;23.406;2024-03-08T09:29:58;100352.00;;;8.51;78.55
6349;BME280;3207;42.648;23.406;2024-03-08T09:32:26;100317.00;;;8.40;78.53
6349;BME280;3207;42.648;23.406;2024-03-08T09:34:53;100345.53;;;8.58;78.66
6349;BME280;3207;42.648;23.406;2024-03-08T09:37:21;100346.00;;;8.64;79.05
6349;BME280;3207;42.648;23.406;2024-03-08T09:39:48;100255.38;;;8.25;79.33
6349;BME280;3207;42.648;23.406;2024-03-08T09:42:15;100334.75;;;8.78;78.98
6349;BME280;3207;42.648;23.406;2024-03-08T09:44:44;100342.47;;;8.94;78.00
6349;BME280;3207;42.648;23.406;2024-03-08T09:47:14;100342.84;;;8.88;77.64
6349;BME280;3207;42.648;23.406;2024-03-08T09:49:42;100340.44;;;8.85;77.81
6349;BME280;3207;42.648;23.406;2024-03-08T09:52:10;100350.00;;;8.84;78.11
6349;BME280;3207;42.648;23.406;2024-03-08T09:54:37;100349.75;;;8.89;77.23
6349;BME280;3207;42.648;23.406;2024-03-08T09:57:06;100344.88;;;8.82;77.30
6349;BME280;3207;42.648;23.406;2024-03-08T09:59:34;100348.69;;;8.63;77.42
6349;BME280;3207;42.648;23.406;2024-03-08T10:02:14;100350.63;;;8.45;78.07
6349;BME280;3207;42.648;23.406;2024-03-08T10:04:43;100344.72;;;8.41;79.01
6349;BME280;3207;42.648;23.406;2024-03-08T10:07:12;100340.53;;;8.39;78.81
6349;BME280;3207;42.648;23.406;2024-03-08T10:09:39;100342.22;;;8.40;78.53
6349;BME280;3207;42.648;23.406;2024-03-08T10:12:07;100346.34;;;8.44;78.89
6349;BME280;3207;42.648;23.406;2024-03-08T10:14:39;100333.69;;;8.52;79.26
6349;BME280;3207;42.648;23.406;2024-03-08T10:17:06;100343.66;;;8.60;78.28
6349;BME280;3207;42.648;23.406;2024-03-08T10:19:35;100335.91;;;8.58;78.17
6349;BME280;3207;42.648;23.406;2024-03-08T10:22:02;100342.44;;;8.51;78.49
6349;BME280;3207;42.648;23.406;2024-03-08T10:24:31;100348.31;;;8.55;78.94
6349;BME280;3207;42.648;23.406;2024-03-08T10:26:59;100345.25;;;8.62;78.50
6349;BME280;3207;42.648;23.406;2024-03-08T10:29:27;100346.16;;;8.61;77.95
6349;BME280;3207;42.648;23.406;2024-03-08T10:31:55;100343.00;;;8.56;77.15
6349;BME280;3207;42.648;23.406;2024-03-08T10:34:22;100348.75;;;8.47;77.59
6349;BME280;3207;42.648;23.406;2024-03-08T10:36:51;100349.56;;;8.48;77.86
6349;BME280;3207;42.648;23.406;2024-03-08T10:39:22;100330.63;;;8.30;77.27
6349;BME280;3207;42.648;23.406;2024-03-08T10:41:57;100336.66;;;8.46;78.29
6349;BME280;3207;42.648;23.406;2024-03-08T10:44:40;100338.97;;;8.51;77.30
6349;BME280;3207;42.648;23.406;2024-03-08T10:47:17;100323.44;;;8.49;78.04
6349;BME280;3207;42.648;23.406;2024-03-08T10:49:51;100340.50;;;8.69;77.54
6349;BME280;3207;42.648;23.406;2024-03-08T10:52:20;100284.00;;;8.55;77.63
6349;BME280;3207;42.648;23.406;2024-03-08T10:54:48;100325.44;;;8.88;76.94
6349;BME280;3207;42.648;23.406;2024-03-08T10:57:17;100298.72;;;8.99;76.93
6349;BME280;3207;42.648;23.406;2024-03-08T10:59:46;100332.19;;;9.47;75.84
6349;BME280;3207;42.648;23.406;2024-03-08T11:02:16;100330.38;;;9.62;74.19
6349;BME280;3207;42.648;23.406;2024-03-08T11:04:46;100326.28;;;9.58;74.31
6349;BME280;3207;42.648;23.406;2024-03-08T11:07:14;100319.47;;;9.55;74.16
6349;BME280;3207;42.648;23.406;2024-03-08T11:09:47;100321.75;;;9.47;74.45
6349;BME280;3207;42.648;23.406;2024-03-08T11:12:25;100321.56;;;9.50;73.50
6349;BME280;3207;42.648;23.406;2024-03-08T11:14:55;100316.13;;;9.53;74.12
6349;BME280;3207;42.648;23.406;2024-03-08T11:17:26;100318.84;;;9.52;74.07
6349;BME280;3207;42.648;23.406;2024-03-08T11:20:09;100312.56;;;9.54;73.33
6349;BME280;3207;42.648;23.406;2024-03-08T11:22:41;100315.50;;;9.50;73.83
6349;BME280;3207;42.648;23.406;2024-03-08T11:25:30;100322.50;;;9.49;72.25
6349;BME280;3207;42.648;23.406;2024-03-08T11:28:07;100314.19;;;9.43;71.96
6349;BME280;3207;42.648;23.406;2024-03-08T11:30:34;100311.31;;;9.33;72.38
6349;BME280;3207;42.648;23.406;2024-03-08T11:33:04;100309.69;;;9.18;72.98
6349;BME280;3207;42.648;23.406;2024-03-08T11:35:30;100312.56;;;9.13;73.92
6349;BME280;3207;42.648;23.406;2024-03-08T11:37:58;100308.66;;;9.21;73.98
6349;BME280;3207;42.648;23.406;2024-03-08T11:40:27;100191.72;;;8.45;73.63
6349;BME280;3207;42.648;23.406;2024-03-08T11:42:54;100303.28;;;9.09;73.99
6349;BME280;3207;42.648;23.406;2024-03-08T11:45:21;100297.69;;;9.01;74.53
6349;BME280;3207;42.648;23.406;2024-03-08T11:47:48;100297.97;;;8.97;75.63
6349;BME280;3207;42.648;23.406;2024-03-08T11:50:15;100238.41;;;8.62;76.13
6349;BME280;3207;42.648;23.406;2024-03-08T11:52:44;100294.63;;;9.09;76.24
6349;BME280;3207;42.648;23.406;2024-03-08T11:55:11;100289.19;;;9.26;75.19
6349;BME280;3207;42.648;23.406;2024-03-08T11:57:40;100284.31;;;9.34;74.87
6349;BME280;3207;42.648;23.406;2024-03-08T12:00:15;100272.59;;;9.27;74.90
6349;BME280;3207;42.648;23.406;2024-03-08T12:03:01;100275.72;;;9.46;75.31
6349;BME280;3207;42.648;23.406;2024-03-08T12:05:28;100287.03;;;9.60;74.67
6349;BME280;3207;42.648;23.406;2024-03-08T12:07:57;100279.28;;;9.72;74.37
6349;BME280;3207;42.648;23.406;2024-03-08T12:10:24;100285.56;;;9.82;73.52
6349;BME280;3207;42.648;23.406;2024-03-08T12:12:53;100280.56;;;9.92;73.21
6349;BME280;3207;42.648;23.406;2024-03-08T12:15:22;100275.81;;;10.11;72.58
6349;BME280;3207;42.648;23.406;2024-03-08T12:17:51;100273.75;;;10.16;72.25
6349;BME280;3207;42.648;23.406;2024-03-08T12:20:20;100278.13;;;10.16;71.58
6349;BME280;3207;42.648;23.406;2024-03-08T12:22:48;100272.25;;;10.12;72.51
6349;BME280;3207;42.648;23.406;2024-03-08T12:25:17;100259.06;;;10.01;73.25
6349;BME280;3207;42.648;23.406;2024-03-08T12:27:46;100263.00;;;9.81;73.84
6349;BME280;3207;42.648;23.406;2024-03-08T12:30:22;100254.19;;;9.70;73.86
6349;BME280;3207;42.648;23.406;2024-03-08T12:32:52;100270.78;;;9.69;74.90
6349;BME280;3207;42.648;23.406;2024-03-08T12:35:20;100263.06;;;9.67;75.11
6349;BME280;3207;42.648;23.406;2024-03-08T12:37:50;100265.00;;;9.51;75.35
6349;BME280;3207;42.648;23.406;2024-03-08T12:40:17;100208.66;;;9.07;75.63
6349;BME280;3207;42.648;23.406;2024-03-08T12:42:44;100264.75;;;9.41;75.68
6349;BME280;3207;42.648;23.406;2024-03-08T12:45:13;100269.75;;;9.44;75.90
6349;BME280;3207;42.648;23.406;2024-03-08T12:47:42;100266.94;;;9.47;76.04
6349;BME280;3207;42.648;23.406;2024-03-08T12:50:10;100258.72;;;9.53;76.12
6349;BME280;3207;42.648;23.406;2024-03-08T12:52:37;100257.06;;;9.52;75.31
6349;BME280;3207;42.648;23.406;2024-03-08T12:55:04;100262.75;;;9.45;76.13
6349;BME280;3207;42.648;23.406;2024-03-08T12:57:34;100255.03;;;9.43;75.63
6349;BME280;3207;42.648;23.406;2024-03-08T13:00:04;100243.63;;;9.32;76.09
6349;BME280;3207;42.648;23.406;2024-03-08T13:02:38;100236.50;;;9.34;76.11
6349;BME280;3207;42.648;23.406;2024-03-08T13:05:07;100243.72;;;9.30;75.85
6349;BME280;3207;42.648;23.406;2024-03-08T13:07:35;100225.81;;;8.97;76.49
6349;BME280;3207;42.648;23.406;2024-03-08T13:10:03;100250.13;;;8.98;77.79
6349;BME280;3207;42.648;23.406;2024-03-08T13:12:30;100140.72;;;8.41;77.18
6349;BME280;3207;42.648;23.406;2024-03-08T13:14:57;100257.81;;;9.13;77.34
6349;BME280;3207;42.648;23.406;2024-03-08T13:17:24;100251.03;;;9.11;77.58